Portada
METAR-TAF:

METAR-TAF

Aeropuertos :

Cascaes, Portugal

latitud: 38-43-32N, longitud: 009-21-19W, altitud: 99 m

Observación

El informe se hizo hace 2 horas y 57 minutos, a las 20:00 UTC
Viento 15 kt del norte
Temperatura 19°C
Humedad 83%
Presión 1017 hPa
Visibilidad 10 km o más
Escasas nubes a una altura de 1300 ft

METAR: LPCS 082000Z 36015KT 9999 FEW013 19/16 Q1017

Hora: 23:57 (22:57 UTC)

Pronóstico

El informe se hizo hace 4 horas y 53 minutos, a las 18:04 UTC
Pronóstico válido del 08 a las 18 UTC al 08 a las 24 UTC
Viento 12 kt del norte
Visibilidad 10 km o más
Escasas nubes a una altura de 1500 ft
Evolucionando progresivamente
del 08 a las 18 UTC al 08 a las 21 UTC
Nubes dispersas a una altura de 800 ft
Probabilidad 30% :
Temporalmente
del 08 a las 18 UTC al 08 a las 24 UTC
Viento 17 kt del norte con ráfagas de 27 kt

TAF: LPCS 081804Z 0818/0824 01012KT 9999 FEW015 BECMG 0818/0821 SCT008 PROB30 TEMPO 0818/0824 01017G27KT

Observaciones y pronósticos meteorológicos de más de 4000 aeropuertos (mensajes METAR y TAF).

Los puntos amarillos y rojos representan las estaciones disponibles.

Ponga el ratón en el punto deseado para ver el nombre de la estación.

Haga clic para ver las observaciones y los pronósticos meteorológicos.

Para cambiar el mapa : haga clic en los botones verdes con una cruz de color negro para hacer un zoom, en el botón verde con un guión para alejar o en las flechas verdes para mapas adyacentes.


METAR-TAF: